METAR Data
IDs: Format: Raw Decoded Include TAF

Data at: 0959 UTC 18 Jan 2022

KGRR 180953Z AUTO 22006KT 10SM OVC021 M02/M05 A2991 RMK AO2 SLP138 T10171050